createdAt,value
2023-03-12T00:00:54.189Z,9.87
2023-03-12T00:03:34.312Z,10.13
2023-03-12T00:06:10.196Z,8.13
2023-03-12T00:08:38.248Z,10.17
2023-03-12T00:11:13.304Z,10.87
2023-03-12T00:13:42.516Z,10.67
2023-03-12T00:16:12.997Z,9.10
2023-03-12T00:18:41.255Z,8.57
2023-03-12T00:21:08.810Z,8.20
2023-03-12T00:23:36.213Z,7.87
2023-03-12T00:26:06.222Z,16.80
2023-03-12T00:28:35.108Z,13.80
2023-03-12T00:31:03.971Z,10.80
2023-03-12T00:33:31.126Z,10.07
2023-03-12T00:36:01.019Z,9.77
2023-03-12T00:38:28.226Z,10.50
2023-03-12T00:40:55.092Z,10.10
2023-03-12T00:43:22.403Z,12.40
2023-03-12T00:45:49.347Z,11.10
2023-03-12T00:48:16.533Z,14.77
2023-03-12T00:50:43.401Z,11.80
2023-03-12T00:53:10.536Z,10.20
2023-03-12T00:55:37.393Z,9.80
2023-03-12T00:58:04.538Z,10.60
2023-03-12T01:00:31.910Z,10.70
2023-03-12T01:02:59.161Z,11.80
2023-03-12T01:05:26.198Z,12.70
2023-03-12T01:07:53.768Z,10.93
2023-03-12T01:10:22.174Z,11.00
2023-03-12T01:12:49.397Z,14.35
2023-03-12T01:15:17.767Z,12.90
2023-03-12T01:17:44.989Z,11.00
2023-03-12T01:20:12.592Z,10.03
2023-03-12T01:22:40.224Z,14.07
2023-03-12T01:25:07.567Z,11.63
2023-03-12T01:27:34.816Z,13.67
2023-03-12T01:30:02.072Z,12.47
2023-03-12T01:32:29.365Z,13.40
2023-03-12T01:34:58.362Z,15.30
2023-03-12T01:37:25.729Z,12.70
2023-03-12T01:39:52.678Z,15.20
2023-03-12T01:42:20.006Z,13.13
2023-03-12T01:44:52.686Z,15.03
2023-03-12T01:47:20.910Z,15.77
2023-03-12T01:49:50.082Z,15.23
2023-03-12T01:52:22.803Z,12.33
2023-03-12T01:54:53.039Z,18.27
2023-03-12T01:57:24.792Z,14.67
2023-03-12T01:59:59.976Z,15.10
2023-03-12T02:02:29.984Z,18.07
2023-03-12T02:05:11.657Z,14.30
2023-03-12T02:07:38.953Z,16.90
2023-03-12T02:10:06.198Z,18.13
2023-03-12T02:12:33.394Z,12.80
2023-03-12T02:15:00.383Z,12.73
2023-03-12T02:17:27.679Z,13.33
2023-03-12T02:20:09.265Z,15.07
2023-03-12T02:22:37.908Z,15.87
2023-03-12T02:25:31.075Z,14.65
2023-03-12T02:28:00.591Z,15.77
2023-03-12T02:30:30.711Z,15.40
2023-03-12T02:33:01.721Z,13.87
2023-03-12T02:35:28.670Z,14.00
2023-03-12T02:37:57.158Z,17.03
2023-03-12T02:40:31.776Z,17.10
2023-03-12T02:42:59.353Z,16.50
2023-03-12T02:45:26.825Z,15.50
2023-03-12T02:47:53.977Z,18.17
2023-03-12T02:50:21.320Z,17.53
2023-03-12T02:52:48.522Z,16.13
2023-03-12T02:55:15.423Z,19.97
2023-03-12T02:57:43.878Z,15.57
2023-03-12T03:00:15.061Z,17.08
2023-03-12T03:02:43.538Z,16.27
2023-03-12T03:05:11.813Z,15.30
2023-03-12T03:07:39.290Z,17.02
2023-03-12T03:10:07.285Z,18.63
2023-03-12T03:12:36.665Z,16.60
2023-03-12T03:17:31.626Z,16.25
2023-03-12T03:19:58.494Z,17.93
2023-03-12T03:22:25.664Z,17.90
2023-03-12T03:24:53.766Z,17.27
2023-03-12T03:27:21.210Z,18.15
2023-03-12T03:32:15.380Z,17.43
2023-03-12T03:34:42.430Z,17.10
2023-03-12T03:37:10.027Z,17.30
2023-03-12T03:39:36.943Z,15.83
2023-03-12T03:42:04.268Z,14.00
2023-03-12T03:44:31.416Z,19.13
2023-03-12T03:46:58.969Z,17.00
2023-03-12T03:49:25.873Z,12.70
2023-03-12T03:51:53.018Z,15.20
2023-03-12T03:54:20.196Z,17.07
2023-03-12T03:56:47.736Z,22.97
2023-03-12T03:59:14.725Z,13.50
2023-03-12T04:01:41.919Z,13.37
2023-03-12T04:04:08.902Z,17.87
2023-03-12T04:06:36.644Z,18.50
2023-03-12T04:09:04.131Z,16.77
2023-03-12T04:11:31.432Z,15.97
2023-03-12T04:13:58.599Z,15.87
2023-03-12T04:16:26.322Z,17.47
2023-03-12T04:18:53.269Z,17.93
2023-03-12T04:21:20.577Z,18.60
2023-03-12T04:23:47.522Z,18.83
2023-03-12T04:26:14.916Z,17.87
2023-03-12T04:28:41.852Z,14.77
2023-03-12T04:31:11.626Z,13.53
2023-03-12T04:33:39.958Z,15.73
2023-03-12T04:36:08.097Z,17.92
2023-03-12T04:38:35.147Z,15.20
2023-03-12T04:41:07.446Z,14.50
2023-03-12T04:43:35.093Z,12.77
2023-03-12T04:46:03.044Z,19.87
2023-03-12T04:48:30.340Z,16.07
2023-03-12T04:50:57.555Z,15.13
2023-03-12T04:53:25.049Z,14.27
2023-03-12T04:55:52.861Z,16.17
2023-03-12T04:58:21.357Z,14.07
2023-03-12T05:00:49.654Z,19.77
2023-03-12T05:03:17.601Z,14.57
2023-03-12T05:05:45.086Z,15.10
2023-03-12T05:08:11.991Z,15.37
2023-03-12T05:10:39.399Z,13.97
2023-03-12T05:13:17.449Z,14.13
2023-03-12T05:15:45.041Z,13.57
2023-03-12T05:18:11.939Z,14.27
2023-03-12T05:20:39.849Z,16.20
2023-03-12T05:23:06.755Z,19.13
2023-03-12T05:25:33.917Z,14.00
2023-03-12T05:28:00.859Z,16.60
2023-03-12T05:30:28.047Z,20.80
2023-03-12T05:32:55.051Z,14.03
2023-03-12T05:35:23.157Z,19.13
2023-03-12T05:37:50.525Z,17.57
2023-03-12T05:40:17.788Z,15.07
2023-03-12T05:42:44.631Z,20.57
2023-03-12T05:45:11.945Z,18.27
2023-03-12T05:47:38.933Z,15.07
2023-03-12T05:50:06.663Z,19.70
2023-03-12T05:52:33.719Z,17.37
2023-03-12T05:55:00.869Z,17.50
2023-03-12T05:57:27.787Z,15.87
2023-03-12T05:59:54.925Z,14.37
2023-03-12T06:02:21.786Z,9.90
2023-03-12T06:04:49.008Z,15.87
2023-03-12T06:07:15.912Z,14.10
2023-03-12T06:09:43.226Z,14.07
2023-03-12T06:12:10.092Z,17.73
2023-03-12T06:14:37.346Z,16.13
2023-03-12T06:17:04.220Z,13.03
2023-03-12T06:19:31.516Z,16.23
2023-03-12T06:21:58.614Z,14.07
2023-03-12T06:24:25.931Z,13.00
2023-03-12T06:26:52.879Z,11.20
2023-03-12T06:29:20.076Z,14.57
2023-03-12T06:31:48.414Z,13.17
2023-03-12T06:34:16.909Z,15.27
2023-03-12T06:36:44.120Z,10.93
2023-03-12T06:39:11.281Z,14.30
2023-03-12T06:41:38.236Z,11.97
2023-03-12T06:44:06.541Z,30.07
2023-03-12T06:46:33.838Z,25.63
2023-03-12T06:49:01.063Z,33.23
2023-03-12T06:51:28.176Z,15.67
2023-03-12T06:53:55.452Z,43.83
2023-03-12T06:56:22.309Z,18.63
2023-03-12T06:58:50.280Z,27.73
2023-03-12T07:01:17.132Z,12.67
2023-03-12T07:03:44.387Z,12.68
2023-03-12T07:06:22.238Z,12.50
2023-03-12T07:08:49.900Z,11.63
2023-03-12T07:11:17.784Z,13.47
2023-03-12T07:13:45.091Z,12.93
2023-03-12T07:16:12.607Z,14.93
2023-03-12T07:18:39.883Z,11.70
2023-03-12T07:21:07.150Z,13.55
2023-03-12T07:23:34.384Z,11.95
2023-03-12T07:26:01.336Z,9.52
2023-03-12T07:28:28.662Z,10.02
2023-03-12T07:31:01.034Z,12.05
2023-03-12T07:33:28.423Z,11.80
2023-03-12T07:35:55.513Z,13.50
2023-03-12T07:38:22.830Z,16.23
2023-03-12T07:40:54.928Z,12.10
2023-03-12T07:43:22.739Z,13.05
2023-03-12T07:45:50.586Z,11.88
2023-03-12T07:48:20.154Z,8.57
2023-03-12T07:50:47.802Z,15.07
2023-03-12T07:53:15.059Z,32.20
2023-03-12T07:55:44.561Z,13.05
2023-03-12T07:58:13.087Z,16.67
2023-03-12T08:00:40.244Z,20.33
2023-03-12T08:03:07.759Z,15.47
2023-03-12T08:05:35.122Z,11.40
2023-03-12T08:08:02.413Z,18.43
2023-03-12T08:10:29.385Z,15.97
2023-03-12T08:12:56.775Z,25.33
2023-03-12T08:15:23.780Z,22.37
2023-03-12T08:17:51.217Z,36.23
2023-03-12T08:20:18.191Z,14.33
2023-03-12T08:22:45.336Z,12.37
2023-03-12T08:25:12.593Z,21.95
2023-03-12T08:27:39.893Z,31.00
2023-03-12T08:30:07.290Z,28.08
2023-03-12T08:32:34.677Z,11.52
2023-03-12T08:35:01.720Z,11.25
2023-03-12T08:37:29.043Z,9.98
2023-03-12T08:39:55.953Z,6.20
2023-03-12T08:42:23.200Z,11.27
2023-03-12T08:44:50.173Z,8.02
2023-03-12T08:47:17.381Z,12.77
2023-03-12T08:49:44.408Z,11.05
2023-03-12T08:52:11.576Z,30.27
2023-03-12T08:54:38.483Z,10.77
2023-03-12T08:57:05.731Z,12.57
2023-03-12T08:59:32.572Z,12.38
2023-03-12T09:01:59.811Z,53.78
2023-03-12T09:04:26.721Z,16.13
2023-03-12T09:06:53.897Z,9.70
2023-03-12T09:09:20.731Z,10.00
2023-03-12T09:11:47.895Z,15.43
2023-03-12T09:14:57.561Z,11.45
2023-03-12T09:17:02.340Z,7.28
2023-03-12T09:19:29.563Z,10.57
2023-03-12T09:21:57.866Z,11.65
2023-03-12T09:24:25.043Z,11.32
2023-03-12T09:26:52.310Z,11.45
2023-03-12T09:29:19.210Z,35.78
2023-03-12T09:31:46.404Z,51.53
2023-03-12T09:34:13.340Z,13.10
2023-03-12T09:36:40.546Z,11.60
2023-03-12T09:39:07.727Z,10.98
2023-03-12T09:41:39.651Z,13.85
2023-03-12T09:44:30.669Z,71.97
2023-03-12T09:47:05.487Z,71.47
2023-03-12T09:49:45.299Z,51.63
2023-03-12T09:52:30.809Z,229.20
2023-03-12T09:55:03.683Z,65.55
2023-03-12T09:57:30.894Z,138.93
2023-03-12T09:59:58.100Z,24.80
2023-03-12T10:02:38.943Z,8.75
2023-03-12T10:05:11.857Z,10.60
2023-03-12T10:07:48.283Z,17.52
2023-03-12T10:10:28.096Z,8.10
2023-03-12T10:13:36.907Z,10.07
2023-03-12T10:16:23.602Z,6.55
2023-03-12T10:19:09.421Z,8.73
2023-03-12T10:21:49.372Z,14.25
2023-03-12T10:24:25.179Z,15.52
2023-03-12T10:26:55.950Z,11.75
2023-03-12T10:29:29.031Z,8.32
2023-03-12T10:32:11.196Z,15.77
2023-03-12T10:34:43.090Z,21.33
2023-03-12T10:37:30.261Z,55.03
2023-03-12T10:40:00.320Z,10.93
2023-03-12T10:42:29.877Z,72.07
2023-03-12T10:45:19.602Z,37.03
2023-03-12T10:47:53.444Z,48.05
2023-03-12T10:50:26.896Z,43.78
2023-03-12T10:53:14.976Z,22.00
2023-03-12T10:55:42.221Z,26.98
2023-03-12T10:58:22.912Z,13.52
2023-03-12T11:01:01.417Z,41.72
2023-03-12T11:03:29.422Z,25.37
2023-03-12T11:06:00.982Z,16.70
2023-03-12T11:08:33.068Z,38.50
2023-03-12T11:11:01.879Z,28.08
2023-03-12T11:13:33.590Z,11.43
2023-03-12T11:16:20.772Z,8.70
2023-03-12T11:19:03.878Z,8.73
2023-03-12T11:21:35.434Z,10.70
2023-03-12T11:24:10.305Z,8.20
2023-03-12T11:26:40.442Z,11.30
2023-03-12T11:29:13.454Z,8.65
2023-03-12T11:31:57.884Z,4.07
2023-03-12T11:34:31.282Z,13.20
2023-03-12T11:37:06.691Z,2.88
2023-03-12T11:39:33.559Z,6.93
2023-03-12T11:42:14.665Z,4.30
2023-03-12T11:45:14.995Z,22.33
2023-03-12T11:48:15.889Z,22.33
2023-03-12T11:51:01.185Z,10.30
2023-03-12T11:53:42.568Z,12.63
2023-03-12T11:56:38.663Z,15.00
2023-03-12T11:59:42.920Z,20.80
2023-03-12T12:02:21.676Z,15.40
2023-03-12T12:05:00.655Z,9.85
2023-03-12T12:07:36.274Z,26.15
2023-03-12T12:10:40.521Z,59.88
2023-03-12T12:13:26.094Z,74.57
2023-03-12T12:16:38.450Z,83.68
2023-03-12T12:19:05.838Z,90.07
2023-03-12T12:22:04.233Z,65.38
2023-03-12T12:24:51.536Z,13.32
2023-03-12T12:27:26.127Z,18.38
2023-03-12T12:30:11.591Z,49.10
2023-03-12T12:32:41.945Z,79.78
2023-03-12T12:35:29.855Z,55.17
2023-03-12T12:37:59.570Z,40.38
2023-03-12T12:40:54.856Z,69.03
2023-03-12T12:43:37.887Z,74.55
2023-03-12T12:46:10.482Z,41.08
2023-03-12T12:48:57.399Z,33.58
2023-03-12T12:51:30.353Z,16.65
2023-03-12T12:54:16.853Z,25.25
2023-03-12T12:57:11.293Z,17.90
2023-03-12T12:59:50.938Z,8.27
2023-03-12T13:02:22.190Z,13.45
2023-03-12T13:04:50.114Z,8.48
2023-03-12T13:07:20.171Z,5.57
2023-03-12T13:09:52.951Z,7.05
2023-03-12T13:12:55.206Z,22.45
2023-03-12T13:15:28.493Z,5.95
2023-03-12T13:17:55.416Z,8.93
2023-03-12T13:20:30.539Z,8.85
2023-03-12T13:23:21.689Z,6.70
2023-03-12T13:26:15.164Z,10.30
2023-03-12T13:29:06.125Z,8.20
2023-03-12T13:31:35.570Z,7.97
2023-03-12T13:34:17.750Z,4.38
2023-03-12T13:36:47.367Z,6.45
2023-03-12T13:41:54.941Z,8.45
2023-03-12T13:44:27.641Z,5.60
2023-03-12T13:47:15.921Z,7.05
2023-03-12T13:49:59.980Z,6.25
2023-03-12T13:52:30.860Z,5.90
2023-03-12T13:55:03.096Z,4.13
2023-03-12T13:58:05.897Z,5.75
2023-03-12T14:00:37.294Z,13.13
2023-03-12T14:03:14.801Z,6.70
2023-03-12T14:05:52.525Z,7.20
2023-03-12T14:08:40.513Z,10.02
2023-03-12T14:11:33.593Z,7.70
2023-03-12T14:14:25.799Z,11.00
2023-03-12T14:16:56.752Z,5.38
2023-03-12T14:19:27.071Z,5.10
2023-03-12T14:21:56.338Z,5.60
2023-03-12T14:24:34.415Z,4.33
2023-03-12T14:27:04.815Z,9.10
2023-03-12T14:29:38.888Z,8.03
2023-03-12T14:32:17.271Z,5.67
2023-03-12T14:35:16.532Z,6.45
2023-03-12T14:37:51.396Z,16.98
2023-03-12T14:40:46.361Z,79.97
2023-03-12T14:43:29.102Z,48.73
2023-03-12T14:45:59.151Z,13.93
2023-03-12T14:48:35.363Z,16.37
2023-03-12T14:51:05.470Z,9.37
2023-03-12T14:53:35.546Z,7.90
2023-03-12T14:56:12.312Z,6.77
2023-03-12T14:58:45.560Z,13.00
2023-03-12T15:01:17.811Z,13.57
2023-03-12T15:03:49.400Z,13.03
2023-03-12T15:06:29.459Z,27.27
2023-03-12T15:08:58.092Z,38.90
2023-03-12T15:11:28.475Z,22.73
2023-03-12T15:14:01.791Z,13.53
2023-03-12T15:16:29.434Z,12.73
2023-03-12T15:18:57.251Z,18.70
2023-03-12T15:21:25.310Z,15.40
2023-03-12T15:23:52.500Z,15.30
2023-03-12T15:26:19.681Z,10.33
2023-03-12T15:29:14.616Z,9.87
2023-03-12T15:31:43.245Z,7.70
2023-03-12T15:34:13.012Z,10.60
2023-03-12T15:36:49.824Z,32.53
2023-03-12T15:39:26.783Z,14.70
2023-03-12T15:41:56.405Z,12.70
2023-03-12T15:44:26.358Z,13.13
2023-03-12T15:47:10.929Z,16.07
2023-03-12T15:49:39.034Z,18.20
2023-03-12T15:52:18.430Z,24.30
2023-03-12T15:57:28.311Z,19.87
2023-03-12T16:00:16.964Z,20.20
2023-03-12T16:03:15.281Z,11.00
2023-03-12T16:05:42.758Z,12.77
2023-03-12T16:08:20.681Z,24.23
2023-03-12T16:10:50.863Z,13.57
2023-03-12T16:13:21.186Z,16.13
2023-03-12T16:15:48.759Z,16.07
2023-03-12T16:18:19.283Z,11.03
2023-03-12T16:20:47.161Z,8.27
2023-03-12T16:23:14.867Z,5.60
2023-03-12T16:25:44.335Z,6.83
2023-03-12T16:28:14.485Z,11.83
2023-03-12T16:30:41.884Z,18.83
2023-03-12T16:33:15.372Z,20.03
2023-03-12T16:35:42.746Z,19.67
2023-03-12T16:38:10.494Z,31.00
2023-03-12T16:40:41.227Z,39.17
2023-03-12T16:43:19.113Z,47.80
2023-03-12T16:45:47.585Z,33.03
2023-03-12T16:48:18.584Z,41.90
2023-03-12T16:50:52.452Z,38.00
2023-03-12T16:53:19.951Z,19.63
2023-03-12T16:55:56.499Z,41.63
2023-03-12T16:58:25.837Z,164.53
2023-03-12T17:00:54.663Z,75.57
2023-03-12T17:06:00.011Z,39.47
2023-03-12T17:08:27.464Z,54.30
2023-03-12T17:10:55.708Z,25.20
2023-03-12T17:13:25.936Z,19.00
2023-03-12T17:15:53.268Z,20.03
2023-03-12T17:18:21.453Z,11.67
2023-03-12T17:20:50.975Z,11.60
2023-03-12T17:23:18.348Z,85.23
2023-03-12T17:25:46.068Z,347.40
2023-03-12T17:28:15.458Z,31.87
2023-03-12T17:33:13.958Z,12.60
2023-03-12T17:35:42.083Z,9.23
2023-03-12T17:38:10.351Z,12.40
2023-03-12T17:40:44.615Z,12.67
2023-03-12T17:43:12.453Z,347.33
2023-03-12T17:45:39.872Z,212.37
2023-03-12T17:48:07.201Z,230.00
2023-03-12T17:50:34.511Z,343.50
2023-03-12T17:53:01.899Z,153.93
2023-03-12T17:55:28.757Z,33.23
2023-03-12T17:57:56.026Z,30.67
2023-03-12T18:00:23.232Z,25.03
2023-03-12T18:02:50.661Z,74.43
2023-03-12T18:05:17.781Z,275.27
2023-03-12T18:07:47.595Z,366.67
2023-03-12T18:10:15.177Z,247.77
2023-03-12T18:12:42.556Z,73.90
2023-03-12T18:15:15.262Z,31.63
2023-03-12T18:17:44.911Z,22.50
2023-03-12T18:20:16.702Z,56.87
2023-03-12T18:22:45.460Z,82.73
2023-03-12T18:25:12.837Z,51.53
2023-03-12T18:27:40.317Z,72.27
2023-03-12T18:30:11.499Z,132.87
2023-03-12T18:32:40.168Z,161.17
2023-03-12T18:35:08.482Z,35.33
2023-03-12T18:37:35.801Z,58.08
2023-03-12T18:40:02.868Z,39.60
2023-03-12T18:42:30.557Z,60.43
2023-03-12T18:44:57.504Z,78.67
2023-03-12T18:47:24.835Z,142.53
2023-03-12T18:49:55.063Z,135.57
2023-03-12T18:52:22.637Z,124.50
2023-03-12T18:54:49.599Z,84.27
2023-03-12T18:57:16.799Z,78.57
2023-03-12T18:59:46.114Z,88.00
2023-03-12T19:02:13.545Z,60.97
2023-03-12T19:04:40.481Z,46.50
2023-03-12T19:07:10.540Z,53.27
2023-03-12T19:09:37.764Z,46.70
2023-03-12T19:12:05.243Z,55.20
2023-03-12T19:14:32.048Z,79.40
2023-03-12T19:16:59.265Z,58.53
2023-03-12T19:19:26.464Z,53.13
2023-03-12T19:21:53.824Z,92.63
2023-03-12T19:24:20.719Z,86.23
2023-03-12T19:26:47.919Z,93.90
2023-03-12T19:29:16.547Z,99.97
2023-03-12T19:31:44.009Z,86.28
2023-03-12T19:34:10.956Z,91.57
2023-03-12T19:36:38.223Z,68.77
2023-03-12T19:39:15.232Z,76.70
2023-03-12T19:41:47.663Z,83.30
2023-03-12T19:44:14.560Z,94.90
2023-03-12T19:46:43.337Z,93.43
2023-03-12T19:49:10.470Z,110.22
2023-03-12T19:51:40.233Z,87.50
2023-03-12T19:54:07.759Z,80.70
2023-03-12T19:56:35.014Z,85.40
2023-03-12T19:59:01.932Z,90.03
2023-03-12T20:01:29.129Z,90.00
2023-03-12T20:03:55.965Z,88.10
2023-03-12T20:06:23.222Z,89.57
2023-03-12T20:08:50.218Z,90.70
2023-03-12T20:11:17.456Z,79.63
2023-03-12T20:13:45.443Z,67.80
2023-03-12T20:16:14.060Z,55.63
2023-03-12T20:18:41.075Z,44.05
2023-03-12T20:21:08.491Z,62.17
2023-03-12T20:23:35.532Z,61.70
2023-03-12T20:26:03.175Z,58.80
2023-03-12T20:28:30.152Z,79.00
2023-03-12T20:30:57.516Z,64.67
2023-03-12T20:33:24.489Z,77.47
2023-03-12T20:35:51.834Z,81.67
2023-03-12T20:38:18.778Z,67.90
2023-03-12T20:40:46.581Z,68.63
2023-03-12T20:43:13.546Z,65.67
2023-03-12T20:45:40.936Z,69.47
2023-03-12T20:48:08.170Z,61.50
2023-03-12T20:50:37.861Z,66.40
2023-03-12T20:53:04.755Z,66.17
2023-03-12T20:55:31.993Z,62.30
2023-03-12T20:57:59.635Z,61.77
2023-03-12T21:00:26.955Z,56.63
2023-03-12T21:02:53.855Z,64.87
2023-03-12T21:05:23.908Z,56.50
2023-03-12T21:07:53.011Z,70.97
2023-03-12T21:10:21.096Z,63.85
2023-03-12T21:12:47.957Z,71.87
2023-03-12T21:15:15.392Z,71.43
2023-03-12T21:17:42.510Z,73.30
2023-03-12T21:20:13.600Z,79.13
2023-03-12T21:22:43.371Z,74.57
2023-03-12T21:25:11.892Z,67.60
2023-03-12T21:27:49.844Z,105.53
2023-03-12T21:30:18.418Z,126.20
2023-03-12T21:32:45.466Z,110.73
2023-03-12T21:35:12.727Z,80.80
2023-03-12T21:37:40.007Z,110.53
2023-03-12T21:40:09.097Z,126.70
2023-03-12T21:42:36.079Z,94.82
2023-03-12T21:45:03.692Z,65.33
2023-03-12T21:47:30.652Z,64.63
2023-03-12T21:49:58.194Z,70.47
2023-03-12T21:52:25.156Z,57.40
2023-03-12T21:54:52.402Z,50.20
2023-03-12T21:57:19.319Z,43.83
2023-03-12T21:59:46.586Z,36.87
2023-03-12T22:02:14.613Z,32.17
2023-03-12T22:04:41.890Z,31.60
2023-03-12T22:07:08.849Z,120.67
2023-03-12T22:09:36.147Z,74.80
2023-03-12T22:12:03.592Z,33.47
2023-03-12T22:14:30.845Z,43.53
2023-03-12T22:16:58.186Z,58.30
2023-03-12T22:19:25.345Z,46.57
2023-03-12T22:21:52.544Z,37.63
2023-03-12T22:24:19.958Z,38.90
2023-03-12T22:26:46.981Z,38.10
2023-03-12T22:29:14.213Z,34.93
2023-03-12T22:31:41.292Z,32.53
2023-03-12T22:34:09.089Z,32.70
2023-03-12T22:36:38.640Z,55.50
2023-03-12T22:39:05.937Z,43.50
2023-03-12T22:41:33.157Z,40.83
2023-03-12T22:44:05.946Z,31.13
2023-03-12T22:46:33.621Z,38.50
2023-03-12T22:49:02.534Z,31.17
2023-03-12T22:51:31.774Z,31.52
2023-03-12T22:53:59.094Z,23.37
2023-03-12T22:56:26.605Z,37.43
2023-03-12T22:58:55.465Z,34.57
2023-03-12T23:01:23.317Z,19.95
2023-03-12T23:03:51.188Z,21.83
2023-03-12T23:06:26.388Z,18.10
2023-03-12T23:08:55.159Z,22.17
2023-03-12T23:11:25.298Z,25.50
2023-03-12T23:13:53.525Z,20.10
2023-03-12T23:16:23.001Z,16.47
2023-03-12T23:18:50.889Z,19.83
2023-03-12T23:21:21.825Z,18.53
2023-03-12T23:23:50.270Z,24.87
2023-03-12T23:26:21.871Z,25.00
2023-03-12T23:28:51.179Z,23.17
2023-03-12T23:31:18.409Z,21.93
2023-03-12T23:33:45.701Z,18.87
2023-03-12T23:36:15.387Z,21.07
2023-03-12T23:38:43.484Z,16.40
2023-03-12T23:41:19.084Z,21.40
2023-03-12T23:43:46.333Z,22.23
2023-03-12T23:46:14.160Z,19.23
2023-03-12T23:48:41.745Z,16.38
2023-03-12T23:51:29.637Z,20.27
2023-03-12T23:53:59.356Z,19.60
2023-03-12T23:56:30.816Z,26.03
2023-03-12T23:58:58.011Z,25.87
